createdAt,value
2022-10-22T00:00:55.898Z,98062.53
2022-10-22T00:03:22.431Z,98061.91
2022-10-22T00:05:48.835Z,98065.84
2022-10-22T00:08:15.232Z,98080.72
2022-10-22T00:10:41.922Z,98093.44
2022-10-22T00:13:08.306Z,98092.47
2022-10-22T00:15:34.827Z,98084.94
2022-10-22T00:18:01.320Z,98087.53
2022-10-22T00:20:27.761Z,98071.56
2022-10-22T00:22:54.277Z,98074.06
2022-10-22T00:25:20.700Z,98075.78
2022-10-22T00:27:47.108Z,98069.25
2022-10-22T00:30:13.730Z,98064.97
2022-10-22T00:32:40.244Z,98066.50
2022-10-22T00:35:07.642Z,98071.28
2022-10-22T00:37:34.125Z,98072.00
2022-10-22T00:40:00.490Z,98065.16
2022-10-22T00:42:30.320Z,98048.03
2022-10-22T00:45:11.585Z,98045.50
2022-10-22T00:48:01.525Z,98046.66
2022-10-22T00:50:38.352Z,98042.50
2022-10-22T00:53:08.611Z,98041.88
2022-10-22T00:55:35.549Z,98041.44
2022-10-22T00:58:02.488Z,98053.13
2022-10-22T01:00:29.046Z,98046.88
2022-10-22T01:02:55.847Z,98048.63
2022-10-22T01:05:22.853Z,98042.06
2022-10-22T01:07:52.005Z,98035.22
2022-10-22T01:10:30.208Z,98033.34
2022-10-22T01:13:20.476Z,98038.72
2022-10-22T01:16:03.772Z,98049.22
2022-10-22T01:18:49.344Z,98044.13
2022-10-22T01:21:24.806Z,98053.66
2022-10-22T01:24:06.079Z,98043.53
2022-10-22T01:27:12.964Z,98047.06
2022-10-22T01:29:53.019Z,98041.56
2022-10-22T01:32:23.254Z,98039.44
2022-10-22T01:34:54.180Z,98042.34
2022-10-22T01:37:24.022Z,98051.44
2022-10-22T01:39:51.862Z,98045.97
2022-10-22T01:42:18.331Z,98049.63
2022-10-22T01:44:44.973Z,98046.38
2022-10-22T01:47:21.214Z,98051.19
2022-10-22T01:50:06.096Z,98048.28
2022-10-22T01:52:57.918Z,98047.84
2022-10-22T01:55:35.649Z,98048.84
2022-10-22T01:58:15.375Z,98050.41
2022-10-22T02:00:59.285Z,98041.47
2022-10-22T02:03:35.986Z,98039.81
2022-10-22T02:06:09.864Z,98037.53
2022-10-22T02:08:37.277Z,98036.81
2022-10-22T02:11:04.853Z,98042.69
2022-10-22T02:13:41.475Z,98041.16
2022-10-22T02:16:11.742Z,98044.03
2022-10-22T02:18:42.907Z,98045.28
2022-10-22T02:21:09.691Z,98057.50
2022-10-22T02:23:36.467Z,98036.09
2022-10-22T02:26:24.896Z,98032.72
2022-10-22T02:29:06.656Z,98023.03
2022-10-22T02:31:37.987Z,98033.09
2022-10-22T02:34:10.137Z,98025.00
2022-10-22T02:36:38.189Z,98030.94
2022-10-22T02:39:08.324Z,98028.97
2022-10-22T02:41:35.209Z,98028.38
2022-10-22T02:44:03.030Z,98027.19
2022-10-22T02:46:29.392Z,98031.47
2022-10-22T02:48:55.780Z,98021.88
2022-10-22T02:51:22.227Z,98022.91
2022-10-22T02:53:48.635Z,98034.72
2022-10-22T02:56:15.017Z,98037.25
2022-10-22T02:58:41.440Z,98041.38
2022-10-22T03:01:09.487Z,98030.41
2022-10-22T03:03:38.791Z,98030.28
2022-10-22T03:06:05.340Z,98042.97
2022-10-22T03:08:31.885Z,98023.94
2022-10-22T03:10:58.367Z,98031.19
2022-10-22T03:13:24.730Z,98037.63
2022-10-22T03:15:51.293Z,98039.72
2022-10-22T03:18:18.019Z,98027.22
2022-10-22T03:20:44.531Z,98030.66
2022-10-22T03:23:14.462Z,98035.13
2022-10-22T03:25:43.198Z,98039.16
2022-10-22T03:28:13.153Z,98041.41
2022-10-22T03:30:39.512Z,98039.63
2022-10-22T03:33:05.905Z,98038.03
2022-10-22T03:35:35.825Z,98026.72
2022-10-22T03:38:02.252Z,98036.28
2022-10-22T03:40:29.035Z,98042.34
2022-10-22T03:42:55.557Z,98035.09
2022-10-22T03:45:21.948Z,98037.25
2022-10-22T03:47:48.369Z,98045.28
2022-10-22T03:50:14.830Z,98048.56
2022-10-22T03:52:41.200Z,98047.97
2022-10-22T03:55:08.565Z,98047.53
2022-10-22T03:57:35.005Z,98055.84
2022-10-22T04:00:02.105Z,98057.75
2022-10-22T04:02:28.511Z,98063.16
2022-10-22T04:04:54.876Z,98057.59
2022-10-22T04:07:21.269Z,98060.06
2022-10-22T04:09:47.704Z,98059.03
2022-10-22T04:12:14.185Z,98061.38
2022-10-22T04:14:40.546Z,98060.59
2022-10-22T04:17:06.930Z,98060.25
2022-10-22T04:19:33.320Z,98059.47
2022-10-22T04:21:59.894Z,98053.69
2022-10-22T04:24:26.643Z,98050.16
2022-10-22T04:26:56.562Z,98062.75
2022-10-22T04:29:23.541Z,98059.13
2022-10-22T04:31:49.930Z,98060.88
2022-10-22T04:34:16.453Z,98065.94
2022-10-22T04:36:42.862Z,98059.41
2022-10-22T04:39:09.403Z,98059.41
2022-10-22T04:41:38.689Z,98059.47
2022-10-22T04:44:06.294Z,98064.16
2022-10-22T04:46:34.481Z,98055.78
2022-10-22T04:49:03.295Z,98056.50
2022-10-22T04:51:30.095Z,98064.16
2022-10-22T04:53:56.486Z,98056.91
2022-10-22T04:56:25.540Z,98054.44
2022-10-22T04:59:00.223Z,98065.47
2022-10-22T05:01:29.220Z,98056.69
2022-10-22T05:03:57.583Z,98062.56
2022-10-22T05:06:25.051Z,98049.72
2022-10-22T05:08:59.249Z,98052.56
2022-10-22T05:11:33.803Z,98057.31
2022-10-22T05:14:02.183Z,98049.28
2022-10-22T05:16:29.886Z,98052.94
2022-10-22T05:18:58.793Z,98057.34
2022-10-22T05:21:25.291Z,98052.94
2022-10-22T05:23:54.936Z,98053.97
2022-10-22T05:26:22.487Z,98056.28
2022-10-22T05:28:49.757Z,98060.19
2022-10-22T05:31:16.557Z,98067.44
2022-10-22T05:33:43.569Z,98070.44
2022-10-22T05:36:14.549Z,98072.94
2022-10-22T05:38:41.036Z,98073.25
2022-10-22T05:41:12.465Z,98077.66
2022-10-22T05:43:39.668Z,98079.53
2022-10-22T05:46:12.588Z,98079.34
2022-10-22T05:48:39.574Z,98087.22
2022-10-22T05:51:13.619Z,98100.44
2022-10-22T05:53:42.401Z,98091.34
2022-10-22T05:56:13.338Z,98094.31
2022-10-22T05:58:40.006Z,98090.84
2022-10-22T06:01:09.193Z,98095.34
2022-10-22T06:03:35.553Z,98100.84
2022-10-22T06:06:05.216Z,98104.34
2022-10-22T06:08:31.749Z,98108.66
2022-10-22T06:10:58.252Z,98111.94
2022-10-22T06:13:24.662Z,98106.84
2022-10-22T06:15:53.448Z,98113.00
2022-10-22T06:18:20.216Z,98111.06
2022-10-22T06:20:47.638Z,98119.63
2022-10-22T06:23:14.795Z,98127.25
2022-10-22T06:25:42.559Z,98125.50
2022-10-22T06:28:09.330Z,98122.94
2022-10-22T06:30:41.745Z,98125.16
2022-10-22T06:33:10.668Z,98122.94
2022-10-22T06:35:37.049Z,98123.34
2022-10-22T06:38:03.434Z,98123.97
2022-10-22T06:40:30.413Z,98121.25
2022-10-22T06:42:59.406Z,98133.16
2022-10-22T06:45:25.896Z,98131.59
2022-10-22T06:47:52.387Z,98136.28
2022-10-22T06:50:18.866Z,98127.56
2022-10-22T06:52:45.556Z,98141.03
2022-10-22T06:55:11.962Z,98142.44
2022-10-22T06:57:38.755Z,98139.50
2022-10-22T07:00:07.138Z,98142.19
2022-10-22T07:02:33.574Z,98148.38
2022-10-22T07:04:59.949Z,98150.31
2022-10-22T07:07:26.572Z,98145.50
2022-10-22T07:09:52.942Z,98149.47
2022-10-22T07:12:19.318Z,98157.47
2022-10-22T07:14:45.736Z,98162.19
2022-10-22T07:17:12.116Z,98165.81
2022-10-22T07:19:38.504Z,98164.47
2022-10-22T07:22:04.952Z,98173.16
2022-10-22T07:24:31.454Z,98175.88
2022-10-22T07:26:58.373Z,98178.28
2022-10-22T07:29:24.813Z,98185.19
2022-10-22T07:31:51.312Z,98191.38
2022-10-22T07:34:17.751Z,98190.06
2022-10-22T07:36:44.132Z,98196.19
2022-10-22T07:39:10.623Z,98199.41
2022-10-22T07:41:36.985Z,98207.28
2022-10-22T07:44:03.612Z,98203.50
2022-10-22T07:46:30.026Z,98205.53
2022-10-22T07:48:56.585Z,98204.03
2022-10-22T07:51:23.095Z,98205.34
2022-10-22T07:53:49.517Z,98208.94
2022-10-22T07:56:16.025Z,98213.28
2022-10-22T07:58:42.392Z,98213.28
2022-10-22T08:01:09.020Z,98209.59
2022-10-22T08:03:35.590Z,98215.94
2022-10-22T08:06:02.413Z,98216.25
2022-10-22T08:08:30.859Z,98215.59
2022-10-22T08:10:59.996Z,98222.03
2022-10-22T08:13:27.549Z,98223.88
2022-10-22T08:15:57.291Z,98236.16
2022-10-22T08:18:24.442Z,98245.94
2022-10-22T08:20:51.789Z,98241.59
2022-10-22T08:23:18.210Z,98256.44
2022-10-22T08:25:44.602Z,98238.19
2022-10-22T08:28:11.032Z,98257.28
2022-10-22T08:30:38.732Z,98255.88
2022-10-22T08:33:05.983Z,98256.50
2022-10-22T08:35:32.636Z,98254.81
2022-10-22T08:37:59.147Z,98259.69
2022-10-22T08:40:39.447Z,98261.97
2022-10-22T08:43:26.298Z,98265.22
2022-10-22T08:46:01.588Z,98258.94
2022-10-22T08:48:49.680Z,98266.06
2022-10-22T08:51:20.309Z,98266.84
2022-10-22T08:53:56.728Z,98269.25
2022-10-22T08:56:23.820Z,98262.84
2022-10-22T08:59:02.872Z,98260.97
2022-10-22T09:01:38.257Z,98269.16
2022-10-22T09:04:45.120Z,98271.13
2022-10-22T09:07:11.614Z,98267.31
2022-10-22T09:09:47.764Z,98266.97
2022-10-22T09:12:20.115Z,98264.84
2022-10-22T09:14:47.088Z,98257.94
2022-10-22T09:17:21.375Z,98259.75
2022-10-22T09:20:17.330Z,98263.94
2022-10-22T09:23:01.217Z,98271.31
2022-10-22T09:25:30.746Z,98271.34
2022-10-22T09:27:59.917Z,98277.63
2022-10-22T09:30:29.876Z,98275.44
2022-10-22T09:33:12.263Z,98274.75
2022-10-22T09:35:56.388Z,98278.84
2022-10-22T09:38:28.809Z,98280.00
2022-10-22T09:40:57.249Z,98271.81
2022-10-22T09:43:24.436Z,98272.38
2022-10-22T09:46:03.439Z,98265.94
2022-10-22T09:48:34.548Z,98275.00
2022-10-22T09:51:26.454Z,98273.34
2022-10-22T09:54:02.006Z,98264.97
2022-10-22T09:56:43.396Z,98273.13
2022-10-22T09:59:16.125Z,98275.28
2022-10-22T10:01:43.133Z,98270.63
2022-10-22T10:04:14.179Z,98270.63
2022-10-22T10:06:43.424Z,98265.56
2022-10-22T10:09:21.285Z,98264.91
2022-10-22T10:12:14.980Z,98275.94
2022-10-22T10:15:00.501Z,98277.50
2022-10-22T10:17:47.717Z,98276.88
2022-10-22T10:20:27.862Z,98272.22
2022-10-22T10:23:19.534Z,98267.56
2022-10-22T10:25:58.199Z,98268.34
2022-10-22T10:28:39.821Z,98272.75
2022-10-22T10:31:33.187Z,98281.56
2022-10-22T10:34:05.336Z,98275.34
2022-10-22T10:36:59.873Z,98280.06
2022-10-22T10:39:37.821Z,98280.81
2022-10-22T10:42:35.224Z,98273.84
2022-10-22T10:45:23.134Z,98285.19
2022-10-22T10:47:55.323Z,98265.44
2022-10-22T10:50:49.605Z,98276.44
2022-10-22T10:53:33.667Z,98274.94
2022-10-22T10:56:05.717Z,98276.78
2022-10-22T10:58:49.219Z,98289.97
2022-10-22T11:01:33.078Z,98280.81
2022-10-22T11:04:25.969Z,98282.63
2022-10-22T11:07:11.581Z,98277.13
2022-10-22T11:10:00.607Z,98271.16
2022-10-22T11:12:33.472Z,98271.97
2022-10-22T11:15:06.283Z,98271.03
2022-10-22T11:17:40.414Z,98262.50
2022-10-22T11:20:18.685Z,98262.19
2022-10-22T11:23:16.886Z,98265.38
2022-10-22T11:25:48.495Z,98267.47
2022-10-22T11:28:53.410Z,98271.22
2022-10-22T11:31:25.364Z,98283.56
2022-10-22T11:34:32.605Z,98283.25
2022-10-22T11:37:01.118Z,98281.81
2022-10-22T11:39:42.694Z,98280.38
2022-10-22T11:42:37.722Z,98300.59
2022-10-22T11:45:06.791Z,98295.06
2022-10-22T11:47:42.150Z,98295.78
2022-10-22T11:50:25.486Z,98301.22
2022-10-22T11:53:08.382Z,98312.13
2022-10-22T11:55:51.428Z,98313.16
2022-10-22T11:58:50.814Z,98302.19
2022-10-22T12:01:48.592Z,98305.88
2022-10-22T12:04:17.766Z,98301.06
2022-10-22T12:07:14.605Z,98308.72
2022-10-22T12:09:44.187Z,98298.88
2022-10-22T12:12:19.308Z,98305.13
2022-10-22T12:15:04.181Z,98303.66
2022-10-22T12:17:31.266Z,98308.09
2022-10-22T12:20:14.169Z,98307.75
2022-10-22T12:22:41.461Z,98307.81
2022-10-22T12:25:24.752Z,98307.44
2022-10-22T12:27:55.072Z,98307.81
2022-10-22T12:30:27.449Z,98310.03
2022-10-22T12:33:00.591Z,98312.25
2022-10-22T12:35:30.455Z,98314.06
2022-10-22T12:38:01.299Z,98311.88
2022-10-22T12:40:30.006Z,98311.53
2022-10-22T12:43:01.934Z,98305.66
2022-10-22T12:45:30.857Z,98303.50
2022-10-22T12:47:59.869Z,98306.03
2022-10-22T12:50:40.180Z,98305.31
2022-10-22T12:53:33.607Z,98298.38
2022-10-22T12:56:03.067Z,98306.81
2022-10-22T12:58:44.487Z,98303.53
2022-10-22T13:01:13.013Z,98306.09
2022-10-22T13:03:45.971Z,98300.59
2022-10-22T13:06:18.495Z,98300.25
2022-10-22T13:09:00.378Z,98305.69
2022-10-22T13:11:51.814Z,98306.47
2022-10-22T13:14:22.257Z,98301.69
2022-10-22T13:17:07.579Z,98312.31
2022-10-22T13:19:36.955Z,98309.38
2022-10-22T13:22:03.403Z,98309.38
2022-10-22T13:24:31.043Z,98314.13
2022-10-22T13:26:57.530Z,98312.66
2022-10-22T13:29:24.803Z,98311.19
2022-10-22T13:31:53.778Z,98317.78
2022-10-22T13:34:23.434Z,98314.13
2022-10-22T13:36:50.746Z,98319.56
2022-10-22T13:39:23.198Z,98323.63
2022-10-22T13:41:51.121Z,98319.97
2022-10-22T13:44:18.878Z,98324.69
2022-10-22T13:46:46.138Z,98327.63
2022-10-22T13:49:23.391Z,98329.47
2022-10-22T13:51:51.373Z,98320.69
2022-10-22T13:54:23.745Z,98317.78
2022-10-22T13:56:50.806Z,98320.34
2022-10-22T13:59:19.813Z,98323.66
2022-10-22T14:01:49.427Z,98327.25
2022-10-22T14:04:16.060Z,98323.25
2022-10-22T14:06:42.687Z,98332.41
2022-10-22T14:09:16.717Z,98324.66
2022-10-22T14:11:43.429Z,98322.88
2022-10-22T14:14:13.992Z,98323.16
2022-10-22T14:16:40.562Z,98328.69
2022-10-22T14:19:07.780Z,98322.81
2022-10-22T14:21:37.472Z,98327.22
2022-10-22T14:24:06.116Z,98317.69
2022-10-22T14:26:35.115Z,98334.19
2022-10-22T14:29:10.656Z,98334.22
2022-10-22T14:31:43.223Z,98327.97
2022-10-22T14:34:11.615Z,98332.38
2022-10-22T14:36:38.158Z,98326.50
2022-10-22T14:39:06.962Z,98321.38
2022-10-22T14:41:33.756Z,98329.47
2022-10-22T14:44:00.533Z,98323.22
2022-10-22T14:46:27.269Z,98330.94
2022-10-22T14:48:53.919Z,98333.50
2022-10-22T14:51:21.626Z,98332.75
2022-10-22T14:53:48.601Z,98332.03
2022-10-22T14:56:18.192Z,98336.81
2022-10-22T14:58:45.721Z,98338.28
2022-10-22T15:01:12.628Z,98345.59
2022-10-22T15:03:39.155Z,98347.47
2022-10-22T15:06:06.561Z,98352.59
2022-10-22T15:08:33.084Z,98349.63
2022-10-22T15:11:07.998Z,98357.34
2022-10-22T15:13:35.179Z,98349.28
2022-10-22T15:16:02.064Z,98350.75
2022-10-22T15:18:28.722Z,98361.00
2022-10-22T15:21:04.372Z,98354.75
2022-10-22T15:23:31.317Z,98367.94
2022-10-22T15:25:58.155Z,98363.19
2022-10-22T15:28:25.340Z,98363.16
2022-10-22T15:30:56.611Z,98364.97
2022-10-22T15:33:23.871Z,98367.19
2022-10-22T15:35:50.486Z,98366.09
2022-10-22T15:38:17.663Z,98368.63
2022-10-22T15:40:44.760Z,98377.41
2022-10-22T15:43:11.820Z,98375.56
2022-10-22T15:45:38.881Z,98385.06
2022-10-22T15:48:05.572Z,98390.91
2022-10-22T15:50:32.251Z,98393.44
2022-10-22T15:52:58.813Z,98398.53
2022-10-22T15:55:25.355Z,98398.13
2022-10-22T15:57:56.469Z,98400.66
2022-10-22T16:00:25.123Z,98393.63
2022-10-22T16:02:53.716Z,98410.00
2022-10-22T16:05:20.358Z,98403.75
2022-10-22T16:07:47.148Z,98414.66
2022-10-22T16:10:16.793Z,98416.03
2022-10-22T16:12:43.597Z,98412.00
2022-10-22T16:15:10.661Z,98413.41
2022-10-22T16:17:37.229Z,98415.91
2022-10-22T16:20:04.003Z,98419.88
2022-10-22T16:22:30.587Z,98421.25
2022-10-22T16:24:57.123Z,98418.97
2022-10-22T16:27:23.602Z,98427.69
2022-10-22T16:29:50.024Z,98430.50
2022-10-22T16:32:16.803Z,98433.41
2022-10-22T16:34:43.484Z,98425.34
2022-10-22T16:37:10.358Z,98429.66
2022-10-22T16:39:37.126Z,98433.63
2022-10-22T16:42:04.036Z,98441.56
2022-10-22T16:44:30.526Z,98438.25
2022-10-22T16:46:56.960Z,98444.81
2022-10-22T16:49:23.587Z,98453.84
2022-10-22T16:51:50.091Z,98456.63
2022-10-22T16:54:16.631Z,98453.97
2022-10-22T16:56:43.086Z,98453.88
2022-10-22T16:59:09.541Z,98449.44
2022-10-22T17:01:40.558Z,98460.72
2022-10-22T17:04:08.041Z,98460.34
2022-10-22T17:06:34.709Z,98468.63
2022-10-22T17:09:01.378Z,98470.41
2022-10-22T17:11:30.185Z,98468.91
2022-10-22T17:13:56.918Z,98466.25
2022-10-22T17:16:24.956Z,98464.41
2022-10-22T17:18:53.861Z,98470.19
2022-10-22T17:21:21.704Z,98476.34
2022-10-22T17:23:48.550Z,98476.59
2022-10-22T17:26:18.474Z,98481.34
2022-10-22T17:28:45.310Z,98484.50
2022-10-22T17:31:22.596Z,98485.91
2022-10-22T17:33:49.991Z,98489.19
2022-10-22T17:36:18.349Z,98498.72
2022-10-22T17:38:50.680Z,98512.09
2022-10-22T17:41:20.867Z,98504.78
2022-10-22T17:43:47.876Z,98512.75
2022-10-22T17:46:23.265Z,98507.53
2022-10-22T17:48:52.623Z,98519.88
2022-10-22T17:51:20.304Z,98517.97
2022-10-22T17:53:48.023Z,98517.19
2022-10-22T17:56:16.876Z,98525.81
2022-10-22T17:58:43.694Z,98531.97
2022-10-22T18:01:29.723Z,98540.38
2022-10-22T18:04:03.475Z,98542.19
2022-10-22T18:06:30.640Z,98539.25
2022-10-22T18:08:57.307Z,98533.59
2022-10-22T18:11:26.593Z,98532.41
2022-10-22T18:13:55.240Z,98537.84
2022-10-22T18:16:21.934Z,98546.53
2022-10-22T18:18:49.857Z,98547.47
2022-10-22T18:21:17.537Z,98543.13
2022-10-22T18:23:45.020Z,98539.44
2022-10-22T18:26:11.473Z,98549.03
2022-10-22T18:28:38.018Z,98553.38
2022-10-22T18:31:09.259Z,98547.13
2022-10-22T18:33:36.873Z,98550.06
2022-10-22T18:36:05.995Z,98550.38
2022-10-22T18:38:33.422Z,98547.69
2022-10-22T18:41:00.368Z,98548.75
2022-10-22T18:43:27.233Z,98547.59
2022-10-22T18:45:53.688Z,98550.75
2022-10-22T18:48:22.784Z,98556.09
2022-10-22T18:51:03.036Z,98550.81
2022-10-22T18:53:29.657Z,98553.38
2022-10-22T18:55:57.653Z,98557.34
2022-10-22T18:58:24.238Z,98556.59
2022-10-22T19:00:51.152Z,98559.91
2022-10-22T19:03:17.836Z,98556.59
2022-10-22T19:05:49.919Z,98554.63
2022-10-22T19:08:19.627Z,98549.03
2022-10-22T19:10:47.258Z,98551.19
2022-10-22T19:13:15.869Z,98551.75
2022-10-22T19:15:42.823Z,98552.41
2022-10-22T19:18:10.482Z,98551.69
2022-10-22T19:20:37.495Z,98565.16
2022-10-22T19:23:04.481Z,98567.38
2022-10-22T19:25:30.956Z,98563.59
2022-10-22T19:27:57.425Z,98562.09
2022-10-22T19:30:24.277Z,98561.38
2022-10-22T19:32:50.811Z,98560.63
2022-10-22T19:35:17.727Z,98557.69
2022-10-22T19:37:48.266Z,98566.06
2022-10-22T19:40:15.418Z,98569.66
2022-10-22T19:42:47.170Z,98569.19
2022-10-22T19:45:13.635Z,98578.84
2022-10-22T19:47:40.380Z,98581.03
2022-10-22T19:50:06.979Z,98574.81
2022-10-22T19:52:33.511Z,98580.97
2022-10-22T19:55:00.025Z,98575.81
2022-10-22T19:57:26.515Z,98577.94
2022-10-22T19:59:52.990Z,98582.94
2022-10-22T20:02:19.685Z,98593.13
2022-10-22T20:04:49.274Z,98593.44
2022-10-22T20:07:16.502Z,98592.38
2022-10-22T20:09:42.929Z,98589.41
2022-10-22T20:12:09.324Z,98588.97
2022-10-22T20:14:36.138Z,98593.28
2022-10-22T20:17:02.635Z,98594.34
2022-10-22T20:19:29.838Z,98597.63
2022-10-22T20:21:56.567Z,98594.72
2022-10-22T20:24:23.093Z,98594.72
2022-10-22T20:26:49.641Z,98601.31
2022-10-22T20:29:19.051Z,98604.25
2022-10-22T20:31:46.495Z,98600.25
2022-10-22T20:34:13.261Z,98601.69
2022-10-22T20:36:40.564Z,98612.31
2022-10-22T20:39:10.879Z,98609.44
2022-10-22T20:41:40.675Z,98604.03
2022-10-22T20:44:11.515Z,98613.22
2022-10-22T20:46:38.418Z,98612.97
2022-10-22T20:49:09.097Z,98620.28
2022-10-22T20:51:37.048Z,98618.50
2022-10-22T20:54:05.351Z,98616.66
2022-10-22T20:56:32.457Z,98626.94
2022-10-22T20:59:06.150Z,98625.16
2022-10-22T21:01:39.250Z,98626.59
2022-10-22T21:04:07.262Z,98632.44
2022-10-22T21:06:38.364Z,98633.19
2022-10-22T21:09:12.403Z,98635.72
2022-10-22T21:11:40.795Z,98634.75
2022-10-22T21:14:09.666Z,98635.06
2022-10-22T21:16:41.343Z,98632.63
2022-10-22T21:19:08.176Z,98629.97
2022-10-22T21:21:34.943Z,98633.94
2022-10-22T21:24:01.654Z,98631.69
2022-10-22T21:26:28.860Z,98634.16
2022-10-22T21:28:58.170Z,98630.47
2022-10-22T21:31:26.534Z,98636.31
2022-10-22T21:33:54.049Z,98632.59
2022-10-22T21:36:22.909Z,98631.69
2022-10-22T21:38:53.984Z,98623.31
2022-10-22T21:41:23.022Z,98629.38
2022-10-22T21:43:50.736Z,98632.47
2022-10-22T21:46:18.917Z,98635.66
2022-10-22T21:48:46.021Z,98642.47
2022-10-22T21:51:18.621Z,98642.47
2022-10-22T21:53:46.325Z,98642.38
2022-10-22T21:56:33.781Z,98640.13
2022-10-22T21:59:01.814Z,98646.69
2022-10-22T22:01:28.823Z,98637.50
2022-10-22T22:03:55.669Z,98639.97
2022-10-22T22:06:28.268Z,98641.34
2022-10-22T22:09:00.755Z,98642.75
2022-10-22T22:11:29.139Z,98646.66
2022-10-22T22:13:58.270Z,98646.13
2022-10-22T22:16:28.832Z,98647.22
2022-10-22T22:18:58.681Z,98647.09
2022-10-22T22:21:25.464Z,98644.56
2022-10-22T22:23:52.224Z,98638.22
2022-10-22T22:26:26.690Z,98645.72
2022-10-22T22:28:57.000Z,98638.75
2022-10-22T22:31:25.283Z,98636.03
2022-10-22T22:33:57.794Z,98636.34
2022-10-22T22:36:24.439Z,98640.38
2022-10-22T22:38:55.444Z,98639.19
2022-10-22T22:41:22.251Z,98640.59
2022-10-22T22:43:49.259Z,98634.97
2022-10-22T22:46:16.568Z,98640.69
2022-10-22T22:48:43.304Z,98633.72
2022-10-22T22:51:10.276Z,98643.03
2022-10-22T22:53:37.240Z,98645.50
2022-10-22T22:56:13.964Z,98639.22
2022-10-22T22:58:41.501Z,98647.06
2022-10-22T23:01:31.053Z,98642.09
2022-10-22T23:03:57.699Z,98638.59
2022-10-22T23:06:27.282Z,98642.81
2022-10-22T23:08:54.326Z,98635.22
2022-10-22T23:11:22.208Z,98641.69
2022-10-22T23:13:56.480Z,98638.41
2022-10-22T23:16:25.254Z,98628.84
2022-10-22T23:18:53.823Z,98624.09
2022-10-22T23:21:23.558Z,98628.41
2022-10-22T23:23:53.074Z,98625.06
2022-10-22T23:26:26.688Z,98627.16
2022-10-22T23:28:53.560Z,98628.34
2022-10-22T23:31:21.962Z,98623.75
2022-10-22T23:33:48.812Z,98629.06
2022-10-22T23:36:16.034Z,98628.75
2022-10-22T23:38:42.984Z,98629.66
2022-10-22T23:41:10.031Z,98630.34
2022-10-22T23:43:37.768Z,98628.41
2022-10-22T23:46:09.862Z,98634.69
2022-10-22T23:48:37.933Z,98629.47
2022-10-22T23:51:16.037Z,98639.63
2022-10-22T23:53:47.084Z,98636.22
2022-10-22T23:56:16.647Z,98636.97
2022-10-22T23:58:43.913Z,98637.63
